New York, NY (10106)

10:25 PM EDT on May 05, 2015 (GMT -0400)
Sutton East | | Change Station
CLOSE
Current Station
Personal Weather Station
Location: New York, NY
Elevation: 79 ft
Nearby Weather Stations

Elev 79 ft 40.76 °N, 73.97 °W | Updated 12 minutes ago

Clear
Clear
71.4 °F
Feels Like 77 °F
N
0.0
Wind Variable Wind from SW

Today
High -- | Low -- °F
--% Chance of Precip.
Yesterday
High -- | Low -- °F
Precip. -- in
5:49 AM 7:56 PM
Waning Gibbous, 96% visible
Pressure 30.18 in
Visibility 10.0 miles
Clouds Clear
Heat Index 77 °F
Dew Point 53 °F
Humidity 53%
Rainfall 0.00 in
Snow Depth Not available.
UV 0 out of 12
Pollen 10.00 out of 12
Air Quality Not available.
Flu Activity Widespread
METAR KNYC 060151Z AUTO 00000KT 10SM CLR 21/11 A3021 RMK AO2 SLP219 T02110111 $

More Conditions Fewer Conditions

Pressure 30.18 in
Visibility 10.0 miles
Clouds Clear
Heat Index 77 °F
Dew Point 53 °F
Humidity 53%
Rainfall 0.00 in
Snow Depth Not available.
UV 0 out of 12
Pollen 10.00 out of 12
Air Quality Not available.
Flu Activity Widespread
METAR KNYC 060151Z AUTO 00000KT 10SM CLR 21/11 A3021 RMK AO2 SLP219 T02110111 $

More Conditions Fewer Conditions

10-Day Weather Forecast

Almanac

Astronomy

May. 05, 2015 Rise Set
Actual Time
Civil Twilight
Nautical Twilight
Astronomical Twilight
Moon
Length of Visible Light
Length of Day
Tomorrow will be .
, % of the Moon is Illuminated

Today's Extremes

State Highs State Lows

Community

WunderPhotos

Upload Photos

1,819,041 photos uploaded!

WunderBlogs® & News

Nearby

Air Quality

  Air Quality AQ Index Pollutant
Not available.

Snow Depth

Station Depth Elevation

Earthquake Activity

City Distance Mag. Time & Date
Minimum magnitude displayed is 2.5.

Coastal Water Temperatures

Place Temperature

Stations

Nearby Weather Stations

Station Location Temp. Windchill Dew Point Humidity Wind Precip. Elev Updated Type